CW8078 Weather Reports


Display with metric or nautical units.
time (UTC)temp
F
wind
direction
speed
MPH
gust
MPH
rain 1hr
in
rain 24hr
in
rain mn
in
humidity
%
barometer
mb
20211208163803 40 275 0.0 1.0 0.00 0.00 0.00 63 1018.1
20211208163304 39 271 0.0 3.0 0.00 0.00 0.00 65 1018.2
20211208160804 37 276 0.0 1.0 0.00 0.00 0.00 70 1018.2
20211208160304 37 276 0.0 3.0 0.00 0.00 0.00 70 1018.2
20211208153804 35 298 0.0 0.0 0.00 0.00 0.00 76 1017.9
20211208153304 34 213 0.0 2.0 0.00 0.00 0.00 81 1017.9
20211208150804 31 200 0.0 1.0 0.00 0.00 0.00 80 1017.7
20211208150305 31 200 0.0 1.0 0.00 0.00 0.00 81 1017.6
20211208143804 28 200 0.0 0.0 0.00 0.00 0.00 87 1017.3
20211208143304 27 200 0.0 1.0 0.00 0.00 0.00 87 1017.4
20211208140804 26 200 0.0 0.0 0.00 0.00 0.00 86 1017.5
20211208140304 26 200 0.0 0.0 0.00 0.00 0.00 86 1017.4
20211208133804 26 200 0.0 0.0 0.00 0.00 0.00 85 1016.8
20211208133304 26 200 0.0 0.0 0.00 0.00 0.00 84 1016.8
20211208130803 27 200 0.0 0.0 0.00 0.00 0.00 84 1016.9
20211208130304 27 200 0.0 0.0 0.00 0.00 0.00 84 1016.9
20211208123804 27 200 0.0 0.0 0.00 0.00 0.00 82 1016.6
20211208123304 27 200 0.0 0.0 0.00 0.00 0.00 82 1016.4
20211208120804 29 200 0.0 0.0 0.00 0.00 0.00 80 1016.4
20211208120304 29 200 0.0 0.0 0.00 0.00 0.00 80 1016.1
20211208113804 28 200 0.0 0.0 0.00 0.00 0.00 82 1016.1
20211208113304 28 200 0.0 0.0 0.00 0.00 0.00 83 1016.0
20211208110804 27 200 0.0 0.0 0.00 0.00 0.00 84 1016.2
20211208110304 27 200 0.0 0.0 0.00 0.00 0.00 82 1016.2
20211208103804 27 200 0.0 0.0 0.00 0.00 0.00 83 1016.3
20211208103304 27 200 0.0 0.0 0.00 0.00 0.00 83 1016.2
20211208100804 27 200 0.0 0.0 0.00 0.00 0.00 82 1016.3
20211208100303 27 200 0.0 0.0 0.00 0.00 0.00 82 1016.2
20211208093804 27 200 0.0 0.0 0.00 0.00 0.00 82 1016.2
20211208093304 26 200 0.0 0.0 0.00 0.00 0.00 83 1016.2
20211208090803 26 200 0.0 1.0 0.00 0.00 0.00 83 1016.1
20211208090304 26 200 0.0 0.0 0.00 0.00 0.00 83 1016.1
20211208083804 25 200 0.0 0.0 0.00 0.00 0.00 82 1016.5
20211208083304 25 200 0.0 0.0 0.00 0.00 0.00 81 1016.6
20211208080804 25 200 0.0 0.0 0.00 0.00 0.00 80 1016.6
20211208080304 25 200 0.0 0.0 0.00 0.00 0.00 80 1016.5
20211208073803 26 200 0.0 0.0 0.00 0.00 0.00 79 1016.6
20211208073304 26 200 0.0 0.0 0.00 0.00 0.00 79 1016.5
20211208070803 26 200 0.0 0.0 0.00 0.00 0.00 79 1016.3
20211208070304 26 200 0.0 3.0 0.00 0.00 0.00 79 1016.3
20211208063804 26 200 0.0 0.0 0.00 0.00 0.00 79 1016.3
20211208063304 26 200 0.0 0.0 0.00 0.00 0.00 77 1016.4
20211208060814 27 200 0.0 0.0 0.00 0.00 0.00 76 1016.9
20211208060304 27 200 0.0 0.0 0.00 0.00 0.00 75 1016.8
20211208053803 28 200 0.0 0.0 0.00 0.00 0.00 74 1017.2
20211208053304 28 200 0.0 0.0 0.00 0.00 0.00 74 1017.2
20211208050804 29 200 0.0 0.0 0.00 0.00 0.00 73 1016.7
20211208050303 29 200 0.0 3.0 0.00 0.00 0.00 73 1016.6
20211208043804 29 200 0.0 0.0 0.00 0.00 0.00 72 1016.6
20211208043303 29 200 0.0 3.0 0.00 0.00 0.00 72 1016.7
20211208040803 29 153 0.0 1.0 0.00 0.00 0.00 71 1016.5
20211208040305 30 153 0.0 1.0 0.00 0.00 0.00 70 1016.5
20211208033804 31 154 0.0 0.0 0.00 0.00 0.00 68 1016.6
20211208033304 31 154 0.0 1.0 0.00 0.00 0.00 67 1016.7
20211208030804 32 154 0.0 0.0 0.00 0.00 0.00 65 1016.6
20211208030304 32 151 0.0 2.0 0.00 0.00 0.00 65 1016.6
20211208023805 32 117 0.0 2.0 0.00 0.00 0.00 65 1016.7
20211208023304 32 147 0.0 3.0 0.00 0.00 0.00 65 1016.7
20211208020804 32 152 0.0 0.0 0.00 0.00 0.00 64 1016.8
20211208020304 32 160 0.0 0.0 0.00 0.00 0.00 64 1016.8
20211208013805 32 138 0.0 0.0 0.00 0.00 0.00 64 1017.0
20211208013304 32 138 0.0 2.0 0.00 0.00 0.00 64 1017.0
20211208010805 32 171 0.0 0.0 0.00 0.00 0.00 63 1017.2
20211208010305 32 174 0.0 3.0 0.00 0.00 0.00 63 1017.1
20211208003805 33 138 1.0 3.0 0.00 0.00 0.00 62 1017.2
20211208003305 33 154 0.0 3.0 0.00 0.00 0.00 62 1017.1
20211208000805 33 147 1.0 3.0 0.00 0.00 0.00 61 1016.3
20211208000304 33 129 1.0 9.0 0.00 0.00 0.00 61 1016.2
20211207233804 33 146 0.0 5.0 0.00 0.00 0.00 60 1016.8
20211207233305 33 147 0.0 5.0 0.00 0.00 0.00 60 1016.8
20211207230805 34 145 1.0 8.0 0.00 0.00 0.00 60 1017.3
20211207230305 34 134 0.0 6.0 0.00 0.00 0.00 60 1017.5
20211207223804 34 150 0.0 2.0 0.00 0.00 0.00 59 1018.0
20211207223304 34 121 0.0 8.0 0.00 0.00 0.00 59 1018.0
20211207220804 35 114 0.0 0.0 0.00 0.00 0.00 59 1017.8
20211207220304 35 159 0.0 6.0 0.00 0.00 0.00 58 1018.0
20211207213805 35 137 0.0 0.0 0.00 0.00 0.00 58 1018.5
20211207213305 35 166 0.0 0.0 0.00 0.00 0.00 58 1018.6
20211207210805 35 142 0.0 0.0 0.00 0.00 0.00 58 1018.6
20211207210304 35 176 0.0 8.0 0.00 0.00 0.00 58 1018.8
20211207203805 35 116 0.0 3.0 0.00 0.00 0.00 58 1018.7
20211207203304 35 138 0.0 9.0 0.00 0.00 0.00 58 1018.7
20211207200805 35 146 0.0 0.0 0.00 0.00 0.00 59 1018.9
20211207200305 35 140 0.0 3.0 0.00 0.00 0.00 58 1018.8
20211207193804 34 139 0.0 1.0 0.00 0.00 0.00 59 1019.0
20211207193305 34 151 0.0 8.0 0.00 0.00 0.00 60 1019.0
20211207190804 34 115 0.0 1.0 0.00 0.00 0.00 59 1019.7
20211207190304 34 132 0.0 9.0 0.00 0.00 0.00 59 1019.6
20211207183804 34 120 0.0 7.0 0.00 0.00 0.00 59 1020.0
20211207183305 34 138 2.0 9.0 0.00 0.00 0.00 59 1020.3
20211207180804 33 103 0.0 3.0 0.00 0.00 0.00 58 1021.2
20211207180305 33 141 1.0 8.0 0.00 0.00 0.00 60 1021.3
20211207173805 32 118 2.0 5.0 0.00 0.00 0.00 61 1021.9
20211207173305 32 186 0.0 6.0 0.00 0.00 0.00 60 1022.1
20211207170804 31 105 0.0 1.0 0.00 0.00 0.00 61 1022.5
20211207170304 31 80 0.0 6.0 0.00 0.00 0.00 61 1022.5